This is the latest recevied weather packets stored in our database for station/object OK2ILA-10. If no packets are shown the sender has not sent any weather packets the latest 10 day(s).
| Time | Temp. | Humidity | Pressure | Rain* | Wind** | Luminosity | Snow |
|---|---|---|---|---|---|---|---|
| 1777603588 | 7.22° C | 60% | 1028.1 hPa | - | - | - | - |
| 1777603584 | 7.22° C | 60% | 1028.1 hPa | - | - | - | - |
| 1777602988 | 7.22° C | 60% | 1028.1 hPa | - | - | - | - |
| 1777602984 | 7.22° C | 60% | 1028.1 hPa | - | - | - | - |
| 1777602388 | 7.22° C | 60% | 1028.2 hPa | - | - | - | - |
| 1777602384 | 7.22° C | 60% | 1028.2 hPa | - | - | - | - |
| 1777601788 | 7.22° C | 61% | 1028.1 hPa | - | - | - | - |
| 1777601784 | 7.22° C | 61% | 1028.1 hPa | - | - | - | - |
| 1777586181 | 4.44° C | 65% | 1028.9 hPa | - | - | - | - |
| 1777585577 | 5° C | 64% | 1028.9 hPa | - | - | - | - |
| 1777584380 | 5.56° C | 62% | 1028.8 hPa | - | - | - | - |
| 1777583780 | 5.56° C | 61% | 1028.7 hPa | - | - | - | - |
| 1777583180 | 5.56° C | 61% | 1028.6 hPa | - | - | - | - |
| 1777583176 | 5.56° C | 61% | 1028.6 hPa | - | - | - | - |
| 1777582576 | 6.11° C | 60% | 1028.7 hPa | - | - | - | - |
| 1777581379 | 6.11° C | 59% | 1028.5 hPa | - | - | - | - |
| 1777580779 | 6.67° C | 59% | 1028.6 hPa | - | - | - | - |
| 1777580179 | 6.67° C | 58% | 1028.7 hPa | - | - | - | - |
| 1777580175 | 6.67° C | 58% | 1028.7 hPa | - | - | - | - |
| 1777578978 | 7.22° C | 56% | 1028.6 hPa | - | - | - | - |
| 1777578378 | 7.78° C | 56% | 1028.5 hPa | - | - | - | - |
| 1777578374 | 7.78° C | 56% | 1028.5 hPa | - | - | - | - |
| 1777577778 | 7.78° C | 55% | 1028.6 hPa | - | - | - | - |
| 1777577774 | 7.78° C | 55% | 1028.6 hPa | - | - | - | - |
| 1777577178 | 8.33° C | 54% | 1028.4 hPa | - | - | - | - |
* Rain since midnight (hover to see other rain measurements)
** Current wind speed in m/s (hover to see current wind gust speed)